createdAt,value
2023-09-02T00:00:55.177Z,101516.00
2023-09-02T00:03:58.737Z,101515.13
2023-09-02T00:06:34.244Z,101525.72
2023-09-02T00:09:44.261Z,101526.59
2023-09-02T00:12:16.477Z,101524.81
2023-09-02T00:14:45.936Z,101519.50
2023-09-02T00:17:24.553Z,101523.91
2023-09-02T00:19:56.990Z,101517.69
2023-09-02T00:22:45.235Z,101512.41
2023-09-02T00:25:27.924Z,101511.50
2023-09-02T00:27:54.286Z,101512.38
2023-09-02T00:34:38.594Z,101514.09
2023-09-02T00:37:26.577Z,101507.94
2023-09-02T00:40:15.126Z,101504.38
2023-09-02T00:43:00.384Z,101516.75
2023-09-02T00:45:57.863Z,101513.19
2023-09-02T00:48:30.337Z,101507.91
2023-09-02T00:51:22.242Z,101526.44
2023-09-02T00:54:13.402Z,101526.41
2023-09-02T00:56:39.769Z,101526.41
2023-09-02T01:02:40.125Z,101528.19
2023-09-02T01:08:49.775Z,101520.25
2023-09-02T01:11:25.438Z,101523.78
2023-09-02T01:14:00.998Z,101537.00
2023-09-02T01:16:46.217Z,101525.50
2023-09-02T01:19:22.769Z,101530.78
2023-09-02T01:21:58.385Z,101535.16
2023-09-02T01:24:56.026Z,101543.13
2023-09-02T01:27:59.562Z,101547.59
2023-09-02T01:30:47.634Z,101556.41
2023-09-02T01:36:48.068Z,101549.38
2023-09-02T01:39:27.808Z,101560.88
2023-09-02T01:48:32.623Z,101575.91
2023-09-02T01:51:17.529Z,101571.50
2023-09-02T01:56:56.765Z,101582.91
2023-09-02T01:59:26.203Z,101585.53
2023-09-02T02:01:55.589Z,101576.72
2023-09-02T02:05:01.280Z,101583.78
2023-09-02T02:08:05.055Z,101586.41
2023-09-02T02:10:45.114Z,101588.19
2023-09-02T02:13:17.556Z,101588.16
2023-09-02T02:16:24.195Z,101585.53
2023-09-02T02:18:53.669Z,101589.03
2023-09-02T02:21:35.339Z,101582.84
2023-09-02T02:24:04.886Z,101586.38
2023-09-02T02:26:37.192Z,101577.56
2023-09-02T02:33:03.140Z,101581.94
2023-09-02T02:35:33.133Z,101587.22
2023-09-02T02:38:02.429Z,101591.59
2023-09-02T02:41:06.637Z,101590.72
2023-09-02T02:44:03.792Z,101596.00
2023-09-02T02:46:51.832Z,101598.66
2023-09-02T02:49:18.186Z,101596.88
2023-09-02T02:52:06.449Z,101603.06
2023-09-02T02:54:50.936Z,101610.13
2023-09-02T02:57:23.411Z,101598.63
2023-09-02T03:00:33.768Z,101606.53
2023-09-02T03:03:31.156Z,101607.41
2023-09-02T03:16:43.224Z,101601.25
2023-09-02T03:19:47.050Z,101600.41
2023-09-02T03:22:32.026Z,101596.00
2023-09-02T03:28:35.276Z,101593.31
2023-09-02T03:31:05.473Z,101586.22
2023-09-02T03:33:31.935Z,101589.72
2023-09-02T03:35:58.300Z,101594.97
2023-09-02T03:38:24.698Z,101594.09
2023-09-02T03:40:51.030Z,101592.28
2023-09-02T03:43:17.671Z,101595.78
2023-09-02T03:45:44.147Z,101591.34
2023-09-02T03:48:10.585Z,101595.75
2023-09-02T03:50:56.939Z,101582.50
2023-09-02T03:53:23.319Z,101586.88
2023-09-02T03:55:49.654Z,101590.38
2023-09-02T03:58:15.990Z,101594.72
2023-09-02T04:00:42.382Z,101586.69
2023-09-02T04:03:08.891Z,101591.84
2023-09-02T04:05:35.336Z,101593.56
2023-09-02T04:08:01.707Z,101594.38
2023-09-02T04:10:28.037Z,101593.41
2023-09-02T04:12:54.369Z,101611.91
2023-09-02T04:15:20.809Z,101610.13
2023-09-02T04:17:47.190Z,101606.63
2023-09-02T04:20:13.659Z,101612.84
2023-09-02T04:22:40.157Z,101611.97
2023-09-02T04:25:11.344Z,101609.41
2023-09-02T04:27:38.000Z,101614.75
2023-09-02T04:30:04.721Z,101621.84
2023-09-02T04:32:31.154Z,101620.97
2023-09-02T04:34:57.808Z,101613.00
2023-09-02T04:37:24.171Z,101615.63
2023-09-02T04:39:50.566Z,101614.69
2023-09-02T04:42:16.933Z,101616.44
2023-09-02T04:44:43.372Z,101619.91
2023-09-02T04:47:11.389Z,101621.69
2023-09-02T04:49:37.733Z,101619.94
2023-09-02T04:52:04.999Z,101625.28
2023-09-02T04:54:31.403Z,101628.00
2023-09-02T04:56:57.845Z,101636.88
2023-09-02T04:59:24.380Z,101644.00
2023-09-02T05:01:50.869Z,101643.19
2023-09-02T05:04:17.249Z,101647.69
2023-09-02T05:06:43.664Z,101650.41
2023-09-02T05:09:09.994Z,101651.34
2023-09-02T05:11:36.353Z,101648.78
2023-09-02T05:14:02.696Z,101665.59
2023-09-02T05:16:29.203Z,101663.03
2023-09-02T05:18:55.597Z,101667.56
2023-09-02T05:21:21.953Z,101669.41
2023-09-02T05:23:48.370Z,101672.13
2023-09-02T05:26:14.717Z,101683.69
2023-09-02T05:28:41.086Z,101681.09
2023-09-02T05:31:07.415Z,101681.97
2023-09-02T05:33:33.789Z,101688.16
2023-09-02T05:36:00.316Z,101692.56
2023-09-02T05:38:26.770Z,101683.72
2023-09-02T05:40:53.282Z,101690.81
2023-09-02T05:43:20.618Z,101689.97
2023-09-02T05:45:48.447Z,101692.66
2023-09-02T05:48:14.917Z,101701.53
2023-09-02T05:50:41.287Z,101694.47
2023-09-02T05:53:07.686Z,101698.03
2023-09-02T05:55:34.547Z,101688.31
2023-09-02T05:58:01.169Z,101694.50
2023-09-02T06:00:27.563Z,101695.41
2023-09-02T06:02:54.328Z,101699.84
2023-09-02T06:05:20.940Z,101691.94
2023-09-02T06:07:47.356Z,101696.38
2023-09-02T06:10:13.799Z,101694.66
2023-09-02T06:12:40.172Z,101695.56
2023-09-02T06:15:06.830Z,101703.59
2023-09-02T06:17:34.999Z,101703.63
2023-09-02T06:20:01.768Z,101706.31
2023-09-02T06:22:28.139Z,101711.63
2023-09-02T06:24:56.224Z,101712.56
2023-09-02T06:27:22.811Z,101716.13
2023-09-02T06:29:49.264Z,101717.91
2023-09-02T06:32:15.703Z,101715.22
2023-09-02T06:34:42.102Z,101712.59
2023-09-02T06:37:08.476Z,101717.03
2023-09-02T06:39:34.847Z,101718.81
2023-09-02T06:42:01.194Z,101712.56
2023-09-02T06:44:27.595Z,101714.34
2023-09-02T06:46:54.048Z,101714.34
2023-09-02T06:49:20.465Z,101719.63
2023-09-02T06:51:46.824Z,101724.00
2023-09-02T06:54:13.180Z,101726.63
2023-09-02T06:56:39.546Z,101732.78
2023-09-02T06:59:05.922Z,101729.19
2023-09-02T07:01:32.342Z,101737.94
2023-09-02T07:03:58.761Z,101738.78
2023-09-02T07:06:25.264Z,101746.72
2023-09-02T07:08:51.692Z,101736.88
2023-09-02T07:11:18.631Z,101746.53
2023-09-02T07:13:47.109Z,101747.34
2023-09-02T07:16:14.202Z,101742.81
2023-09-02T07:18:40.597Z,101755.16
2023-09-02T07:21:07.044Z,101747.06
2023-09-02T07:23:33.909Z,101748.69
2023-09-02T07:26:01.555Z,101754.72
2023-09-02T07:28:28.336Z,101756.38
2023-09-02T07:30:56.946Z,101755.38
2023-09-02T07:33:23.358Z,101760.59
2023-09-02T07:35:49.787Z,101760.50
2023-09-02T07:38:16.121Z,101760.31
2023-09-02T07:40:42.472Z,101767.25
2023-09-02T07:43:08.838Z,101765.38
2023-09-02T07:45:35.274Z,101774.97
2023-09-02T07:48:02.246Z,101775.72
2023-09-02T07:50:28.662Z,101778.34
2023-09-02T07:52:55.024Z,101780.84
2023-09-02T07:55:21.678Z,101784.19
2023-09-02T07:57:48.038Z,101780.34
2023-09-02T08:00:14.406Z,101784.63
2023-09-02T08:02:40.970Z,101785.38
2023-09-02T08:05:07.705Z,101786.91
2023-09-02T08:07:34.140Z,101793.06
2023-09-02T08:10:00.521Z,101796.50
2023-09-02T08:12:26.928Z,101795.47
2023-09-02T08:14:53.308Z,101799.81
2023-09-02T08:17:20.888Z,101799.59
2023-09-02T08:19:48.033Z,101802.22
2023-09-02T08:22:14.723Z,101805.63
2023-09-02T08:24:43.112Z,101804.66
2023-09-02T08:27:09.845Z,101805.50
2023-09-02T08:29:36.336Z,101808.09
2023-09-02T08:32:02.875Z,101817.56
2023-09-02T08:34:29.712Z,101814.88
2023-09-02T08:36:56.245Z,101821.03
2023-09-02T08:39:22.603Z,101820.28
2023-09-02T08:41:49.805Z,101831.63
2023-09-02T08:44:17.105Z,101827.09
2023-09-02T08:46:45.912Z,101822.56
2023-09-02T08:49:12.751Z,101825.19
2023-09-02T08:51:39.641Z,101829.44
2023-09-02T08:54:06.281Z,101815.13
2023-09-02T08:56:32.670Z,101822.28
2023-09-02T08:58:59.072Z,101821.91
2023-09-02T09:01:25.821Z,101826.19
2023-09-02T09:03:56.181Z,101835.94
2023-09-02T09:06:23.397Z,101835.84
2023-09-02T09:08:51.049Z,101825.63
2023-09-02T09:11:18.313Z,101835.22
2023-09-02T09:13:46.593Z,101824.22
2023-09-02T09:16:34.479Z,101834.06
2023-09-02T09:19:02.189Z,101833.84
2023-09-02T09:21:28.548Z,101830.81
2023-09-02T09:23:54.947Z,101833.53
2023-09-02T09:26:22.302Z,101835.88
2023-09-02T09:28:52.723Z,101840.28
2023-09-02T09:31:19.479Z,101843.00
2023-09-02T09:34:07.723Z,101838.47
2023-09-02T09:36:34.730Z,101839.22
2023-09-02T09:39:02.087Z,101838.94
2023-09-02T09:41:28.679Z,101831.66
2023-09-02T09:44:08.532Z,101830.72
2023-09-02T09:46:36.212Z,101829.81
2023-09-02T09:49:03.577Z,101829.50
2023-09-02T09:51:30.495Z,101834.63
2023-09-02T09:53:56.974Z,101837.03
2023-09-02T09:56:23.798Z,101838.38
2023-09-02T09:58:50.166Z,101840.19
2023-09-02T10:01:23.545Z,101842.56
2023-09-02T10:03:51.610Z,101850.25
2023-09-02T10:06:17.967Z,101848.31
2023-09-02T10:08:54.100Z,101853.41
2023-09-02T10:11:22.889Z,101833.50
2023-09-02T10:13:53.831Z,101849.31
2023-09-02T10:16:21.209Z,101854.19
2023-09-02T10:18:48.342Z,101854.13
2023-09-02T10:21:16.292Z,101843.38
2023-09-02T10:23:48.200Z,101850.00
2023-09-02T10:26:38.368Z,101853.53
2023-09-02T10:29:07.784Z,101867.28
2023-09-02T10:31:39.114Z,101870.19
2023-09-02T10:34:08.710Z,101869.16
2023-09-02T10:36:37.872Z,101872.81
2023-09-02T10:39:06.022Z,101875.59
2023-09-02T10:41:32.897Z,101875.56
2023-09-02T10:43:59.478Z,101875.44
2023-09-02T10:46:26.205Z,101870.97
2023-09-02T10:48:52.651Z,101875.28
2023-09-02T10:51:19.625Z,101879.16
2023-09-02T10:53:49.234Z,101874.72
2023-09-02T10:56:34.741Z,101880.94
2023-09-02T10:59:02.206Z,101885.19
2023-09-02T11:01:44.944Z,101892.91
2023-09-02T11:04:11.567Z,101894.75
2023-09-02T11:06:38.080Z,101882.72
2023-09-02T11:09:04.540Z,101884.41
2023-09-02T11:12:02.738Z,101897.81
2023-09-02T11:14:29.098Z,101888.00
2023-09-02T11:17:14.070Z,101890.22
2023-09-02T11:19:56.602Z,101892.78
2023-09-02T11:22:41.859Z,101891.34
2023-09-02T11:25:08.234Z,101892.69
2023-09-02T11:27:47.076Z,101899.06
2023-09-02T11:30:13.866Z,101888.47
2023-09-02T11:32:44.729Z,101894.31
2023-09-02T11:35:15.552Z,101900.16
2023-09-02T11:37:41.965Z,101893.13
2023-09-02T11:40:14.850Z,101901.22
2023-09-02T11:42:51.446Z,101897.47
2023-09-02T11:45:18.065Z,101891.03
2023-09-02T11:47:44.871Z,101900.81
2023-09-02T11:50:12.044Z,101894.31
2023-09-02T11:52:38.530Z,101899.22
2023-09-02T11:55:11.745Z,101905.94
2023-09-02T11:57:38.122Z,101901.72
2023-09-02T12:00:04.846Z,101905.03
2023-09-02T12:02:31.275Z,101899.44
2023-09-02T12:04:57.917Z,101896.03
2023-09-02T12:07:24.359Z,101902.13
2023-09-02T12:09:51.590Z,101896.75
2023-09-02T12:12:18.081Z,101897.97
2023-09-02T12:14:44.456Z,101893.25
2023-09-02T12:17:10.982Z,101891.22
2023-09-02T12:19:37.620Z,101895.81
2023-09-02T12:22:04.257Z,101896.47
2023-09-02T12:24:30.991Z,101901.25
2023-09-02T12:26:57.450Z,101889.56
2023-09-02T12:29:24.586Z,101900.41
2023-09-02T12:31:58.304Z,101891.06
2023-09-02T12:34:25.325Z,101893.13
2023-09-02T12:36:51.962Z,101897.06
2023-09-02T12:39:25.243Z,101889.47
2023-09-02T12:41:51.990Z,101896.91
2023-09-02T12:44:21.560Z,101892.63
2023-09-02T12:46:48.291Z,101895.25
2023-09-02T12:49:18.361Z,101894.34
2023-09-02T12:51:44.932Z,101900.94
2023-09-02T12:54:15.134Z,101898.41
2023-09-02T12:56:41.817Z,101899.25
2023-09-02T12:59:08.559Z,101892.84
2023-09-02T13:01:35.039Z,101886.69
2023-09-02T13:04:02.176Z,101887.53
2023-09-02T13:06:30.447Z,101884.56
2023-09-02T13:08:57.155Z,101887.06
2023-09-02T13:11:25.581Z,101897.75
2023-09-02T13:13:52.063Z,101897.03
2023-09-02T13:16:18.613Z,101885.94
2023-09-02T13:18:45.962Z,101888.38
2023-09-02T13:21:13.143Z,101878.09
2023-09-02T13:23:39.493Z,101882.56
2023-09-02T13:26:18.082Z,101884.28
2023-09-02T13:28:44.863Z,101884.25
2023-09-02T13:31:12.605Z,101870.69
2023-09-02T13:33:41.035Z,101876.47
2023-09-02T13:36:07.472Z,101866.78
2023-09-02T13:38:37.016Z,101868.91
2023-09-02T13:41:04.834Z,101870.81
2023-09-02T13:43:32.666Z,101877.59
2023-09-02T13:46:00.222Z,101873.44
2023-09-02T13:48:26.673Z,101865.34
2023-09-02T13:50:54.674Z,101868.66
2023-09-02T13:53:21.358Z,101862.81
2023-09-02T13:55:48.695Z,101869.91
2023-09-02T13:58:18.505Z,101865.81
2023-09-02T14:00:45.665Z,101866.75
2023-09-02T14:03:20.697Z,101869.91
2023-09-02T14:05:48.727Z,101863.88
2023-09-02T14:08:19.804Z,101869.72
2023-09-02T14:10:49.974Z,101858.34
2023-09-02T14:13:17.250Z,101869.28
2023-09-02T14:15:44.547Z,101857.84
2023-09-02T14:18:11.029Z,101863.78
2023-09-02T14:20:37.482Z,101859.44
2023-09-02T14:23:04.018Z,101866.22
2023-09-02T14:25:30.576Z,101870.94
2023-09-02T14:27:57.136Z,101862.56
2023-09-02T14:30:23.671Z,101865.66
2023-09-02T14:32:50.079Z,101867.53
2023-09-02T14:35:16.613Z,101864.72
2023-09-02T14:37:43.008Z,101867.31
2023-09-02T14:40:09.515Z,101871.22
2023-09-02T14:42:35.883Z,101866.38
2023-09-02T14:45:04.294Z,101872.03
2023-09-02T14:47:30.750Z,101876.84
2023-09-02T14:49:57.223Z,101874.25
2023-09-02T14:52:24.124Z,101878.78
2023-09-02T14:54:50.902Z,101866.59
2023-09-02T14:57:18.140Z,101876.34
2023-09-02T14:59:48.261Z,101872.03
2023-09-02T15:02:19.793Z,101877.84
2023-09-02T15:04:46.246Z,101890.69
2023-09-02T15:07:14.808Z,101883.13
2023-09-02T15:09:41.226Z,101887.16
2023-09-02T15:12:07.868Z,101889.41
2023-09-02T15:14:35.110Z,101886.13
2023-09-02T15:17:02.786Z,101901.38
2023-09-02T15:19:30.434Z,101895.56
2023-09-02T15:22:00.608Z,101905.03
2023-09-02T15:24:28.790Z,101913.19
2023-09-02T15:26:55.153Z,101915.66
2023-09-02T15:29:23.769Z,101918.06
2023-09-02T15:31:52.022Z,101921.44
2023-09-02T15:34:19.370Z,101933.00
2023-09-02T15:36:47.164Z,101934.84
2023-09-02T15:39:19.627Z,101937.59
2023-09-02T15:41:46.017Z,101931.44
2023-09-02T15:44:12.776Z,101919.56
2023-09-02T15:46:39.268Z,101927.09
2023-09-02T15:49:05.833Z,101933.16
2023-09-02T15:51:32.374Z,101937.09
2023-09-02T15:53:58.932Z,101934.84
2023-09-02T15:56:25.530Z,101936.16
2023-09-02T15:58:51.917Z,101933.69
2023-09-02T16:01:18.309Z,101939.88
2023-09-02T16:03:44.824Z,101936.41
2023-09-02T16:06:11.331Z,101939.53
2023-09-02T16:08:38.154Z,101939.16
2023-09-02T16:11:04.861Z,101943.13
2023-09-02T16:13:31.259Z,101948.00
2023-09-02T16:15:57.686Z,101952.94
2023-09-02T16:18:24.216Z,101954.03
2023-09-02T16:20:53.788Z,101964.03
2023-09-02T16:23:20.568Z,101957.91
2023-09-02T16:25:47.220Z,101973.22
2023-09-02T16:28:13.609Z,101975.09
2023-09-02T16:30:40.009Z,101978.75
2023-09-02T16:33:06.562Z,101973.56
2023-09-02T16:35:33.124Z,101972.94
2023-09-02T16:37:59.631Z,101970.41
2023-09-02T16:40:28.249Z,101974.13
2023-09-02T16:42:54.587Z,101977.84
2023-09-02T16:45:20.945Z,101977.88
2023-09-02T16:47:48.735Z,101981.53
2023-09-02T16:50:16.329Z,101986.03
2023-09-02T16:52:46.788Z,101986.25
2023-09-02T16:55:18.174Z,101983.72
2023-09-02T16:57:45.901Z,101979.38
2023-09-02T17:00:13.116Z,101983.88
2023-09-02T17:02:58.297Z,101985.81
2023-09-02T17:05:25.732Z,101988.63
2023-09-02T17:07:53.081Z,101992.34
2023-09-02T17:10:21.417Z,101997.88
2023-09-02T17:12:48.282Z,102001.53
2023-09-02T17:15:16.160Z,101995.41
2023-09-02T17:17:44.631Z,101994.59
2023-09-02T17:20:30.186Z,101991.03
2023-09-02T17:23:16.862Z,101988.50
2023-09-02T17:25:44.104Z,101987.69
2023-09-02T17:28:36.645Z,101979.81
2023-09-02T17:31:05.346Z,101996.06
2023-09-02T17:33:32.969Z,101991.66
2023-09-02T17:35:59.778Z,101994.44
2023-09-02T17:38:26.225Z,101992.81
2023-09-02T17:40:52.672Z,101993.84
2023-09-02T17:43:19.028Z,101997.50
2023-09-02T17:45:45.419Z,101997.59
2023-09-02T17:48:11.859Z,102003.09
2023-09-02T17:50:38.224Z,102005.88
2023-09-02T17:53:04.739Z,102005.09
2023-09-02T17:55:31.108Z,102003.38
2023-09-02T17:57:57.493Z,102005.22
2023-09-02T18:00:23.919Z,102002.69
2023-09-02T18:02:50.936Z,102006.31
2023-09-02T18:05:17.418Z,102005.53
2023-09-02T18:07:43.825Z,102003.00
2023-09-02T18:10:13.688Z,102011.97
2023-09-02T18:12:40.531Z,102020.09
2023-09-02T18:15:08.458Z,102018.38
2023-09-02T18:17:38.367Z,102021.97
2023-09-02T18:20:05.026Z,102025.59
2023-09-02T18:22:31.458Z,102020.31
2023-09-02T18:24:58.474Z,102024.81
2023-09-02T18:27:24.873Z,102022.22
2023-09-02T18:29:51.244Z,102026.69
2023-09-02T18:32:19.298Z,102032.03
2023-09-02T18:34:45.716Z,102036.53
2023-09-02T18:37:12.153Z,102026.78
2023-09-02T18:39:38.535Z,102033.94
2023-09-02T18:42:05.081Z,102045.53
2023-09-02T18:44:31.463Z,102042.00
2023-09-02T18:46:57.876Z,102040.25
2023-09-02T18:49:24.326Z,102048.31
2023-09-02T18:51:50.886Z,102040.31
2023-09-02T18:54:17.236Z,102042.13
2023-09-02T18:56:43.663Z,102042.13
2023-09-02T18:59:10.083Z,102044.84
2023-09-02T19:01:37.636Z,102043.06
2023-09-02T19:04:05.634Z,102047.53
2023-09-02T19:06:36.834Z,102052.00
2023-09-02T19:09:03.740Z,102052.91
2023-09-02T19:11:30.566Z,102059.13
2023-09-02T19:13:57.733Z,102067.13
2023-09-02T19:16:24.968Z,102065.34
2023-09-02T19:18:52.763Z,102062.72
2023-09-02T19:21:19.147Z,102061.81
2023-09-02T19:23:45.616Z,102062.72
2023-09-02T19:26:14.363Z,102058.25
2023-09-02T19:28:41.226Z,102066.25
2023-09-02T19:31:07.765Z,102079.56
2023-09-02T19:33:34.373Z,102078.69
2023-09-02T19:36:00.800Z,102082.25
2023-09-02T19:38:27.338Z,102076.94
2023-09-02T19:40:53.733Z,102077.78
2023-09-02T19:43:20.096Z,102083.13
2023-09-02T19:45:46.559Z,102076.03
2023-09-02T19:48:13.028Z,102083.13
2023-09-02T19:50:46.124Z,102088.47
2023-09-02T19:53:15.466Z,102088.47
2023-09-02T19:55:46.134Z,102090.22
2023-09-02T19:58:13.180Z,102105.31
2023-09-02T20:00:43.994Z,102112.44
2023-09-02T20:03:13.199Z,102118.63
2023-09-02T20:05:40.105Z,102112.41
2023-09-02T20:08:06.699Z,102118.63
2023-09-02T20:10:34.496Z,102109.75
2023-09-02T20:13:01.103Z,102110.63
2023-09-02T20:15:27.630Z,102111.53
2023-09-02T20:17:54.136Z,102112.41
2023-09-02T20:20:20.817Z,102118.59
2023-09-02T20:22:47.322Z,102115.97
2023-09-02T20:25:13.851Z,102116.84
2023-09-02T20:27:42.053Z,102121.28
2023-09-02T20:30:08.661Z,102130.13
2023-09-02T20:32:35.072Z,102134.59
2023-09-02T20:35:01.468Z,102126.56
2023-09-02T20:37:30.208Z,102131.94
2023-09-02T20:39:56.911Z,102125.69
2023-09-02T20:42:23.382Z,102133.69
2023-09-02T20:44:50.967Z,102139.00
2023-09-02T20:47:17.334Z,102133.69
2023-09-02T20:49:45.070Z,102137.22
2023-09-02T20:52:11.465Z,102134.56
2023-09-02T20:54:39.916Z,102140.78
2023-09-02T20:57:06.311Z,102135.44
2023-09-02T20:59:32.655Z,102138.09
2023-09-02T21:01:59.130Z,102135.44
2023-09-02T21:04:25.480Z,102122.09
2023-09-02T21:06:51.839Z,102122.97
2023-09-02T21:09:18.215Z,102120.31
2023-09-02T21:11:44.744Z,102123.00
2023-09-02T21:14:11.171Z,102116.78
2023-09-02T21:16:37.746Z,102114.13
2023-09-02T21:19:04.125Z,102109.69
2023-09-02T21:21:30.475Z,102111.47
2023-09-02T21:23:59.409Z,102113.22
2023-09-02T21:26:27.380Z,102123.84
2023-09-02T21:28:53.780Z,102125.66
2023-09-02T21:31:20.475Z,102122.97
2023-09-02T21:33:47.196Z,102129.19
2023-09-02T21:36:17.757Z,102126.50
2023-09-02T21:38:44.672Z,102123.81
2023-09-02T21:41:11.327Z,102125.59
2023-09-02T21:43:40.694Z,102121.16
2023-09-02T21:46:08.735Z,102118.50
2023-09-02T21:48:35.158Z,102114.06
2023-09-02T21:51:02.702Z,102107.81
2023-09-02T21:53:29.329Z,102117.56
2023-09-02T21:55:55.702Z,102116.69
2023-09-02T21:58:23.146Z,102113.13
2023-09-02T22:00:58.627Z,102119.31
2023-09-02T22:03:25.322Z,102120.19
2023-09-02T22:06:02.033Z,102117.50
2023-09-02T22:08:28.530Z,102117.47
2023-09-02T22:10:55.591Z,102118.38
2023-09-02T22:13:22.255Z,102117.50
2023-09-02T22:15:48.812Z,102121.03
2023-09-02T22:18:15.199Z,102128.13
2023-09-02T22:20:41.566Z,102140.53
2023-09-02T22:23:08.070Z,102140.56
2023-09-02T22:25:34.531Z,102144.97
2023-09-02T22:28:00.905Z,102141.44
2023-09-02T22:30:27.357Z,102140.56
2023-09-02T22:32:53.790Z,102144.09
2023-09-02T22:35:20.148Z,102136.13
2023-09-02T22:37:46.569Z,102145.00
2023-09-02T22:40:13.148Z,102134.34
2023-09-02T22:42:39.489Z,102135.25
2023-09-02T22:45:06.043Z,102126.34
2023-09-02T22:47:32.474Z,102140.53
2023-09-02T22:49:58.889Z,102129.84
2023-09-02T22:52:25.270Z,102141.34
2023-09-02T22:54:51.586Z,102145.78
2023-09-02T22:57:17.975Z,102154.66
2023-09-02T22:59:44.312Z,102152.88
2023-09-02T23:02:10.720Z,102155.53
2023-09-02T23:04:37.111Z,102145.78
2023-09-02T23:07:03.518Z,102141.38
2023-09-02T23:09:30.161Z,102144.03
2023-09-02T23:11:56.543Z,102151.13
2023-09-02T23:14:22.876Z,102160.88
2023-09-02T23:16:49.642Z,102148.41
2023-09-02T23:19:16.116Z,102144.88
2023-09-02T23:21:42.464Z,102153.75
2023-09-02T23:24:08.936Z,102153.75
2023-09-02T23:26:35.398Z,102155.47
2023-09-02T23:29:01.733Z,102165.25
2023-09-02T23:31:29.307Z,102179.38
2023-09-02T23:33:55.766Z,102171.41
2023-09-02T23:36:24.039Z,102185.59
2023-09-02T23:38:50.742Z,102195.34
2023-09-02T23:41:17.132Z,102190.00
2023-09-02T23:43:43.492Z,102197.06
2023-09-02T23:46:20.116Z,102192.63
2023-09-02T23:48:46.529Z,102197.94
2023-09-02T23:51:12.950Z,102208.56
2023-09-02T23:53:39.293Z,102212.97
2023-09-02T23:56:05.631Z,102208.53
2023-09-02T23:58:32.035Z,102211.16
